sensor_id;sensor_type;location;lat;lon;timestamp;pressure;altitude;pressure_sealevel;temperature;humidity
77381;BME280;66439;50.106;10.996;2024-02-21T00:01:38;99549.04;;;8.93;64.42
77381;BME280;66439;50.106;10.996;2024-02-21T00:03:41;99547.56;;;8.97;64.40
77381;BME280;66439;50.106;10.996;2024-02-21T00:05:43;99544.56;;;9.01;64.38
77381;BME280;66439;50.106;10.996;2024-02-21T00:07:46;99542.77;;;9.03;64.22
77381;BME280;66439;50.106;10.996;2024-02-21T00:09:49;99538.02;;;9.03;63.98
77381;BME280;66439;50.106;10.996;2024-02-21T00:11:51;99533.85;;;9.00;63.90
77381;BME280;66439;50.106;10.996;2024-02-21T00:13:54;99527.33;;;9.00;64.16
77381;BME280;66439;50.106;10.996;2024-02-21T00:15:57;99524.04;;;8.99;64.08
77381;BME280;66439;50.106;10.996;2024-02-21T00:18:00;99516.66;;;8.99;63.99
77381;BME280;66439;50.106;10.996;2024-02-21T00:20:03;99513.27;;;8.99;64.13
77381;BME280;66439;50.106;10.996;2024-02-21T00:22:07;99506.68;;;9.01;64.12
77381;BME280;66439;50.106;10.996;2024-02-21T00:24:10;99505.82;;;9.01;64.22
77381;BME280;66439;50.106;10.996;2024-02-21T00:26:14;99498.67;;;9.06;64.31
77381;BME280;66439;50.106;10.996;2024-02-21T00:28:16;99497.39;;;9.11;64.30
77381;BME280;66439;50.106;10.996;2024-02-21T00:30:19;99495.80;;;9.13;63.91
77381;BME280;66439;50.106;10.996;2024-02-21T00:32:22;99497.91;;;9.13;64.12
77381;BME280;66439;50.106;10.996;2024-02-21T00:34:24;99493.04;;;9.14;63.88
77381;BME280;66439;50.106;10.996;2024-02-21T00:36:27;99490.09;;;9.15;63.92
77381;BME280;66439;50.106;10.996;2024-02-21T00:38:31;99485.80;;;9.17;63.91
77381;BME280;66439;50.106;10.996;2024-02-21T00:40:34;99479.23;;;9.18;63.97
77381;BME280;66439;50.106;10.996;2024-02-21T00:42:37;99470.70;;;9.21;64.10
77381;BME280;66439;50.106;10.996;2024-02-21T00:44:40;99475.78;;;9.22;63.73
77381;BME280;66439;50.106;10.996;2024-02-21T00:46:42;99468.36;;;9.23;63.91
77381;BME280;66439;50.106;10.996;2024-02-21T00:48:45;99462.15;;;9.25;63.74
77381;BME280;66439;50.106;10.996;2024-02-21T00:50:48;99460.02;;;9.28;63.78
77381;BME280;66439;50.106;10.996;2024-02-21T00:52:50;99458.31;;;9.29;63.77
77381;BME280;66439;50.106;10.996;2024-02-21T00:54:53;99458.14;;;9.27;63.55
77381;BME280;66439;50.106;10.996;2024-02-21T00:56:56;99454.59;;;9.27;63.67
77381;BME280;66439;50.106;10.996;2024-02-21T00:58:59;99457.35;;;9.28;63.84
77381;BME280;66439;50.106;10.996;2024-02-21T01:01:01;99460.43;;;9.27;63.49
77381;BME280;66439;50.106;10.996;2024-02-21T01:03:05;99462.77;;;9.25;63.50
77381;BME280;66439;50.106;10.996;2024-02-21T01:05:08;99463.53;;;9.24;63.66
77381;BME280;66439;50.106;10.996;2024-02-21T01:07:10;99459.95;;;9.24;63.67
77381;BME280;66439;50.106;10.996;2024-02-21T01:09:14;99455.17;;;9.24;63.60
77381;BME280;66439;50.106;10.996;2024-02-21T01:11:17;99456.09;;;9.24;63.59
77381;BME280;66439;50.106;10.996;2024-02-21T01:13:20;99455.20;;;9.22;63.56
77381;BME280;66439;50.106;10.996;2024-02-21T01:15:23;99452.17;;;9.21;63.33
77381;BME280;66439;50.106;10.996;2024-02-21T01:17:26;99448.80;;;9.19;63.56
77381;BME280;66439;50.106;10.996;2024-02-21T01:19:29;99446.05;;;9.19;63.58
77381;BME280;66439;50.106;10.996;2024-02-21T01:21:31;99448.33;;;9.17;63.59
77381;BME280;66439;50.106;10.996;2024-02-21T01:23:35;99442.13;;;9.15;63.35
77381;BME280;66439;50.106;10.996;2024-02-21T01:25:38;99436.74;;;9.15;63.68
77381;BME280;66439;50.106;10.996;2024-02-21T01:27:40;99432.24;;;9.15;63.58
77381;BME280;66439;50.106;10.996;2024-02-21T01:29:44;99435.75;;;9.15;63.50
77381;BME280;66439;50.106;10.996;2024-02-21T01:31:48;99433.19;;;9.18;63.57
77381;BME280;66439;50.106;10.996;2024-02-21T01:33:51;99432.15;;;9.20;63.68
77381;BME280;66439;50.106;10.996;2024-02-21T01:35:53;99430.00;;;9.22;63.71
77381;BME280;66439;50.106;10.996;2024-02-21T01:37:56;99425.20;;;9.24;63.81
77381;BME280;66439;50.106;10.996;2024-02-21T01:40:00;99422.43;;;9.27;63.77
77381;BME280;66439;50.106;10.996;2024-02-21T01:42:02;99426.75;;;9.30;63.66
77381;BME280;66439;50.106;10.996;2024-02-21T01:44:05;99424.10;;;9.33;63.79
77381;BME280;66439;50.106;10.996;2024-02-21T01:46:08;99422.95;;;9.37;63.73
77381;BME280;66439;50.106;10.996;2024-02-21T01:48:10;99423.13;;;9.39;63.77
77381;BME280;66439;50.106;10.996;2024-02-21T01:50:14;99418.77;;;9.40;63.59
77381;BME280;66439;50.106;10.996;2024-02-21T01:52:18;99418.90;;;9.40;63.41
77381;BME280;66439;50.106;10.996;2024-02-21T01:54:21;99415.57;;;9.40;63.43
77381;BME280;66439;50.106;10.996;2024-02-21T01:56:24;99415.39;;;9.37;63.35
77381;BME280;66439;50.106;10.996;2024-02-21T01:58:28;99411.03;;;9.34;63.35
77381;BME280;66439;50.106;10.996;2024-02-21T02:00:32;99412.55;;;9.34;63.54
77381;BME280;66439;50.106;10.996;2024-02-21T02:02:35;99409.42;;;9.33;63.39
77381;BME280;66439;50.106;10.996;2024-02-21T02:04:38;99408.37;;;9.31;63.57
77381;BME280;66439;50.106;10.996;2024-02-21T02:06:42;99406.76;;;9.28;63.53
77381;BME280;66439;50.106;10.996;2024-02-21T02:08:45;99404.98;;;9.24;63.53
77381;BME280;66439;50.106;10.996;2024-02-21T02:10:48;99406.95;;;9.24;63.51
77381;BME280;66439;50.106;10.996;2024-02-21T02:12:51;99404.17;;;9.22;63.38
77381;BME280;66439;50.106;10.996;2024-02-21T02:15:03;99396.75;;;9.20;63.64
77381;BME280;66439;50.106;10.996;2024-02-21T02:17:08;99395.30;;;9.20;63.73
77381;BME280;66439;50.106;10.996;2024-02-21T02:19:12;99395.33;;;9.20;63.64
77381;BME280;66439;50.106;10.996;2024-02-21T02:21:29;99389.10;;;9.20;63.75
77381;BME280;66439;50.106;10.996;2024-02-21T02:23:34;99384.81;;;9.22;63.90
77381;BME280;66439;50.106;10.996;2024-02-21T02:25:38;99379.15;;;9.24;64.01
77381;BME280;66439;50.106;10.996;2024-02-21T02:27:44;99374.71;;;9.28;64.00
77381;BME280;66439;50.106;10.996;2024-02-21T02:29:47;99374.61;;;9.33;64.06
77381;BME280;66439;50.106;10.996;2024-02-21T02:31:50;99374.23;;;9.33;63.69
77381;BME280;66439;50.106;10.996;2024-02-21T02:33:52;99372.16;;;9.32;63.67
77381;BME280;66439;50.106;10.996;2024-02-21T02:35:55;99372.00;;;9.34;63.93
77381;BME280;66439;50.106;10.996;2024-02-21T02:37:58;99370.86;;;9.35;63.77
77381;BME280;66439;50.106;10.996;2024-02-21T02:40:01;99364.96;;;9.35;63.76
77381;BME280;66439;50.106;10.996;2024-02-21T02:42:04;99361.20;;;9.36;63.80
77381;BME280;66439;50.106;10.996;2024-02-21T02:44:07;99356.06;;;9.36;63.63
77381;BME280;66439;50.106;10.996;2024-02-21T02:46:09;99354.11;;;9.33;63.49
77381;BME280;66439;50.106;10.996;2024-02-21T02:48:12;99346.86;;;9.33;63.75
77381;BME280;66439;50.106;10.996;2024-02-21T02:50:15;99338.27;;;9.33;63.91
77381;BME280;66439;50.106;10.996;2024-02-21T02:52:18;99329.98;;;9.33;63.98
77381;BME280;66439;50.106;10.996;2024-02-21T02:54:21;99329.55;;;9.34;64.13
77381;BME280;66439;50.106;10.996;2024-02-21T02:56:23;99327.13;;;9.32;64.02
77381;BME280;66439;50.106;10.996;2024-02-21T02:58:26;99332.73;;;9.33;64.28
77381;BME280;66439;50.106;10.996;2024-02-21T03:00:29;99332.59;;;9.32;64.03
77381;BME280;66439;50.106;10.996;2024-02-21T03:02:31;99332.33;;;9.30;64.08
77381;BME280;66439;50.106;10.996;2024-02-21T03:04:34;99329.91;;;9.29;64.14
77381;BME280;66439;50.106;10.996;2024-02-21T03:06:37;99320.69;;;9.31;64.21
77381;BME280;66439;50.106;10.996;2024-02-21T03:08:40;99313.70;;;9.34;64.32
77381;BME280;66439;50.106;10.996;2024-02-21T03:10:43;99308.95;;;9.37;64.13
77381;BME280;66439;50.106;10.996;2024-02-21T03:12:46;99299.95;;;9.36;64.33
77381;BME280;66439;50.106;10.996;2024-02-21T03:14:50;99303.14;;;9.38;64.24
77381;BME280;66439;50.106;10.996;2024-02-21T03:16:52;99300.77;;;9.42;64.67
77381;BME280;66439;50.106;10.996;2024-02-21T03:18:55;99298.15;;;9.43;64.30
77381;BME280;66439;50.106;10.996;2024-02-21T03:20:57;99301.23;;;9.44;64.38
77381;BME280;66439;50.106;10.996;2024-02-21T03:23:01;99303.69;;;9.44;64.38
77381;BME280;66439;50.106;10.996;2024-02-21T03:25:04;99305.50;;;9.41;64.38
77381;BME280;66439;50.106;10.996;2024-02-21T03:27:06;99316.99;;;9.36;64.43
77381;BME280;66439;50.106;10.996;2024-02-21T03:29:10;99327.08;;;9.29;64.50
77381;BME280;66439;50.106;10.996;2024-02-21T03:31:13;99331.77;;;9.23;64.81
77381;BME280;66439;50.106;10.996;2024-02-21T03:33:17;99328.69;;;9.20;64.92
77381;BME280;66439;50.106;10.996;2024-02-21T03:35:20;99327.92;;;9.19;65.19
77381;BME280;66439;50.106;10.996;2024-02-21T03:37:22;99325.34;;;9.18;65.18
77381;BME280;66439;50.106;10.996;2024-02-21T03:39:26;99327.29;;;9.18;65.25
77381;BME280;66439;50.106;10.996;2024-02-21T03:41:28;99321.84;;;9.13;65.13
77381;BME280;66439;50.106;10.996;2024-02-21T03:43:31;99320.87;;;9.10;65.15
77381;BME280;66439;50.106;10.996;2024-02-21T03:45:34;99322.38;;;9.08;65.30
77381;BME280;66439;50.106;10.996;2024-02-21T03:47:37;99325.47;;;9.04;65.51
77381;BME280;66439;50.106;10.996;2024-02-21T03:49:39;99328.68;;;9.03;65.74
77381;BME280;66439;50.106;10.996;2024-02-21T03:51:42;99331.27;;;9.05;65.92
77381;BME280;66439;50.106;10.996;2024-02-21T03:53:45;99332.78;;;9.08;66.02
77381;BME280;66439;50.106;10.996;2024-02-21T03:55:47;99334.42;;;9.09;65.99
77381;BME280;66439;50.106;10.996;2024-02-21T03:57:50;99331.87;;;9.11;65.96
77381;BME280;66439;50.106;10.996;2024-02-21T03:59:53;99329.60;;;9.15;65.90
77381;BME280;66439;50.106;10.996;2024-02-21T04:01:55;99329.27;;;9.16;65.89
77381;BME280;66439;50.106;10.996;2024-02-21T04:03:58;99326.37;;;9.17;65.89
77381;BME280;66439;50.106;10.996;2024-02-21T04:06:01;99323.90;;;9.16;65.90
77381;BME280;66439;50.106;10.996;2024-02-21T04:08:06;99320.30;;;9.14;65.72
77381;BME280;66439;50.106;10.996;2024-02-21T04:10:10;99321.94;;;9.15;65.84
77381;BME280;66439;50.106;10.996;2024-02-21T04:12:13;99317.36;;;9.15;65.95
77381;BME280;66439;50.106;10.996;2024-02-21T04:14:15;99315.52;;;9.14;65.82
77381;BME280;66439;50.106;10.996;2024-02-21T04:16:18;99312.06;;;9.13;65.91
77381;BME280;66439;50.106;10.996;2024-02-21T04:18:20;99310.94;;;9.14;66.06
77381;BME280;66439;50.106;10.996;2024-02-21T04:20:24;99313.09;;;9.13;65.86
77381;BME280;66439;50.106;10.996;2024-02-21T04:22:26;99304.45;;;9.18;66.12
77381;BME280;66439;50.106;10.996;2024-02-21T04:24:29;99299.04;;;9.23;66.25
77381;BME280;66439;50.106;10.996;2024-02-21T04:26:32;99293.48;;;9.25;65.96
77381;BME280;66439;50.106;10.996;2024-02-21T04:28:34;99300.02;;;9.25;65.85
77381;BME280;66439;50.106;10.996;2024-02-21T04:30:37;99300.05;;;9.25;66.06
77381;BME280;66439;50.106;10.996;2024-02-21T04:32:40;99296.14;;;9.25;65.92
77381;BME280;66439;50.106;10.996;2024-02-21T04:34:43;99286.02;;;9.25;65.92
77381;BME280;66439;50.106;10.996;2024-02-21T04:36:46;99282.14;;;9.25;65.75
77381;BME280;66439;50.106;10.996;2024-02-21T04:38:48;99276.40;;;9.24;65.94
77381;BME280;66439;50.106;10.996;2024-02-21T04:40:52;99275.48;;;9.23;65.77
77381;BME280;66439;50.106;10.996;2024-02-21T04:42:55;99274.80;;;9.23;65.91
77381;BME280;66439;50.106;10.996;2024-02-21T04:44:58;99280.66;;;9.21;65.72
77381;BME280;66439;50.106;10.996;2024-02-21T04:47:02;99282.64;;;9.17;65.74
77381;BME280;66439;50.106;10.996;2024-02-21T04:49:06;99284.08;;;9.15;65.74
77381;BME280;66439;50.106;10.996;2024-02-21T04:51:08;99287.63;;;9.12;65.68
77381;BME280;66439;50.106;10.996;2024-02-21T04:53:11;99283.89;;;9.07;65.78
77381;BME280;66439;50.106;10.996;2024-02-21T04:55:14;99283.48;;;9.04;65.76
77381;BME280;66439;50.106;10.996;2024-02-21T04:57:17;99276.42;;;9.00;65.97
77381;BME280;66439;50.106;10.996;2024-02-21T04:59:20;99277.85;;;9.00;65.68
77381;BME280;66439;50.106;10.996;2024-02-21T05:01:22;99278.45;;;9.00;65.87
77381;BME280;66439;50.106;10.996;2024-02-21T05:03:25;99277.07;;;9.01;66.14
77381;BME280;66439;50.106;10.996;2024-02-21T05:05:28;99277.48;;;9.03;66.04
77381;BME280;66439;50.106;10.996;2024-02-21T05:07:31;99280.42;;;9.01;66.17
77381;BME280;66439;50.106;10.996;2024-02-21T05:09:34;99279.02;;;8.99;66.24
77381;BME280;66439;50.106;10.996;2024-02-21T05:11:37;99278.61;;;8.98;66.06
77381;BME280;66439;50.106;10.996;2024-02-21T05:13:42;99276.16;;;9.00;66.30
77381;BME280;66439;50.106;10.996;2024-02-21T05:15:45;99269.34;;;9.01;66.48
77381;BME280;66439;50.106;10.996;2024-02-21T05:17:48;99266.98;;;9.01;66.26
77381;BME280;66439;50.106;10.996;2024-02-21T05:19:51;99266.29;;;8.99;66.33
77381;BME280;66439;50.106;10.996;2024-02-21T05:21:53;99269.22;;;8.97;66.34
77381;BME280;66439;50.106;10.996;2024-02-21T05:23:56;99262.52;;;8.93;66.18
77381;BME280;66439;50.106;10.996;2024-02-21T05:26:02;99262.84;;;8.92;66.31
77381;BME280;66439;50.106;10.996;2024-02-21T05:28:05;99259.09;;;8.89;66.35
77381;BME280;66439;50.106;10.996;2024-02-21T05:30:09;99258.34;;;8.86;66.50
77381;BME280;66439;50.106;10.996;2024-02-21T05:32:12;99254.65;;;8.86;66.48
77381;BME280;66439;50.106;10.996;2024-02-21T05:34:14;99252.23;;;8.85;66.73
77381;BME280;66439;50.106;10.996;2024-02-21T05:36:17;99249.85;;;8.86;66.57
77381;BME280;66439;50.106;10.996;2024-02-21T05:38:20;99243.23;;;8.88;66.59
77381;BME280;66439;50.106;10.996;2024-02-21T05:40:22;99243.19;;;8.92;66.70
77381;BME280;66439;50.106;10.996;2024-02-21T05:42:25;99249.35;;;8.97;66.85
77381;BME280;66439;50.106;10.996;2024-02-21T05:44:28;99243.89;;;9.02;66.85
77381;BME280;66439;50.106;10.996;2024-02-21T05:46:31;99237.41;;;9.07;66.88
77381;BME280;66439;50.106;10.996;2024-02-21T05:48:33;99234.02;;;9.11;66.68
77381;BME280;66439;50.106;10.996;2024-02-21T05:50:41;99238.50;;;9.13;66.77
77381;BME280;66439;50.106;10.996;2024-02-21T05:52:44;99240.64;;;9.17;66.67
77381;BME280;66439;50.106;10.996;2024-02-21T05:54:46;99238.71;;;9.20;66.81
77381;BME280;66439;50.106;10.996;2024-02-21T05:56:52;99232.52;;;9.20;66.44
77381;BME280;66439;50.106;10.996;2024-02-21T05:58:56;99226.17;;;9.18;66.39
77381;BME280;66439;50.106;10.996;2024-02-21T06:00:59;99217.10;;;9.17;66.45
77381;BME280;66439;50.106;10.996;2024-02-21T06:03:03;99217.45;;;9.15;66.35
77381;BME280;66439;50.106;10.996;2024-02-21T06:05:07;99220.40;;;9.14;66.38
77381;BME280;66439;50.106;10.996;2024-02-21T06:07:10;99219.63;;;9.13;66.65
77381;BME280;66439;50.106;10.996;2024-02-21T06:09:13;99221.00;;;9.13;66.53
77381;BME280;66439;50.106;10.996;2024-02-21T06:11:15;99220.89;;;9.13;66.62
77381;BME280;66439;50.106;10.996;2024-02-21T06:13:18;99221.27;;;9.16;66.75
77381;BME280;66439;50.106;10.996;2024-02-21T06:15:21;99223.52;;;9.19;66.68
77381;BME280;66439;50.106;10.996;2024-02-21T06:17:23;99225.84;;;9.19;66.47
77381;BME280;66439;50.106;10.996;2024-02-21T06:19:26;99227.12;;;9.20;66.55
77381;BME280;66439;50.106;10.996;2024-02-21T06:21:29;99230.07;;;9.23;66.66
77381;BME280;66439;50.106;10.996;2024-02-21T06:23:32;99227.02;;;9.23;66.72
77381;BME280;66439;50.106;10.996;2024-02-21T06:25:35;99223.61;;;9.24;66.71
77381;BME280;66439;50.106;10.996;2024-02-21T06:27:38;99226.74;;;9.24;66.57
77381;BME280;66439;50.106;10.996;2024-02-21T06:29:41;99226.35;;;9.25;66.60
77381;BME280;66439;50.106;10.996;2024-02-21T06:31:43;99226.98;;;9.25;66.59
77381;BME280;66439;50.106;10.996;2024-02-21T06:33:46;99227.46;;;9.24;66.32
77381;BME280;66439;50.106;10.996;2024-02-21T06:35:48;99226.85;;;9.23;66.54
77381;BME280;66439;50.106;10.996;2024-02-21T06:37:53;99222.91;;;9.22;66.43
77381;BME280;66439;50.106;10.996;2024-02-21T06:39:57;99221.42;;;9.21;66.53
77381;BME280;66439;50.106;10.996;2024-02-21T06:42:00;99223.23;;;9.17;66.45
77381;BME280;66439;50.106;10.996;2024-02-21T06:44:05;99223.44;;;9.17;66.52
77381;BME280;66439;50.106;10.996;2024-02-21T06:46:08;99224.29;;;9.16;66.50
77381;BME280;66439;50.106;10.996;2024-02-21T06:48:11;99222.08;;;9.12;66.46
77381;BME280;66439;50.106;10.996;2024-02-21T06:50:15;99220.35;;;9.10;66.39
77381;BME280;66439;50.106;10.996;2024-02-21T06:52:18;99222.73;;;9.12;66.57
77381;BME280;66439;50.106;10.996;2024-02-21T06:54:23;99224.20;;;9.15;66.72
77381;BME280;66439;50.106;10.996;2024-02-21T06:56:26;99216.44;;;9.18;66.57
77381;BME280;66439;50.106;10.996;2024-02-21T06:58:32;99214.35;;;9.21;66.97
77381;BME280;66439;50.106;10.996;2024-02-21T07:00:34;99219.99;;;9.26;66.80
77381;BME280;66439;50.106;10.996;2024-02-21T07:02:37;99217.02;;;9.28;66.70
77381;BME280;66439;50.106;10.996;2024-02-21T07:04:39;99212.85;;;9.31;66.64
77381;BME280;66439;50.106;10.996;2024-02-21T07:06:42;99220.02;;;9.31;66.56
77381;BME280;66439;50.106;10.996;2024-02-21T07:08:45;99223.13;;;9.32;66.47
77381;BME280;66439;50.106;10.996;2024-02-21T07:10:48;99225.38;;;9.31;66.34
77381;BME280;66439;50.106;10.996;2024-02-21T07:12:50;99227.80;;;9.28;66.33
77381;BME280;66439;50.106;10.996;2024-02-21T07:14:54;99234.26;;;9.23;66.14
77381;BME280;66439;50.106;10.996;2024-02-21T07:16:57;99235.33;;;9.18;66.19
77381;BME280;66439;50.106;10.996;2024-02-21T07:18:59;99242.70;;;9.14;66.30
77381;BME280;66439;50.106;10.996;2024-02-21T07:21:02;99240.35;;;9.09;66.48
77381;BME280;66439;50.106;10.996;2024-02-21T07:23:05;99236.29;;;9.06;66.37
77381;BME280;66439;50.106;10.996;2024-02-21T07:25:08;99230.02;;;9.07;66.76
77381;BME280;66439;50.106;10.996;2024-02-21T07:27:10;99222.01;;;9.07;66.63
77381;BME280;66439;50.106;10.996;2024-02-21T07:29:13;99216.28;;;9.10;66.70
77381;BME280;66439;50.106;10.996;2024-02-21T07:31:16;99212.27;;;9.14;66.84
77381;BME280;66439;50.106;10.996;2024-02-21T07:33:18;99206.19;;;9.20;66.89
77381;BME280;66439;50.106;10.996;2024-02-21T07:35:21;99209.78;;;9.21;66.71
77381;BME280;66439;50.106;10.996;2024-02-21T07:37:24;99209.52;;;9.18;66.78
77381;BME280;66439;50.106;10.996;2024-02-21T07:39:26;99206.62;;;9.19;66.76
77381;BME280;66439;50.106;10.996;2024-02-21T07:41:29;99198.23;;;9.23;66.77
77381;BME280;66439;50.106;10.996;2024-02-21T07:43:33;99189.70;;;9.27;66.92
77381;BME280;66439;50.106;10.996;2024-02-21T07:45:36;99187.95;;;9.32;66.94
77381;BME280;66439;50.106;10.996;2024-02-21T07:47:39;99187.50;;;9.36;66.90
77381;BME280;66439;50.106;10.996;2024-02-21T07:49:45;99188.83;;;9.40;66.72
77381;BME280;66439;50.106;10.996;2024-02-21T07:51:48;99193.54;;;9.46;66.72
77381;BME280;66439;50.106;10.996;2024-02-21T07:53:51;99197.14;;;9.48;66.53
77381;BME280;66439;50.106;10.996;2024-02-21T07:55:53;99202.64;;;9.50;66.40
77381;BME280;66439;50.106;10.996;2024-02-21T07:57:56;99201.72;;;9.50;66.40
77381;BME280;66439;50.106;10.996;2024-02-21T07:59:59;99204.73;;;9.50;66.32
77381;BME280;66439;50.106;10.996;2024-02-21T08:02:02;99204.52;;;9.50;66.20
77381;BME280;66439;50.106;10.996;2024-02-21T08:04:05;99203.96;;;9.49;66.13
77381;BME280;66439;50.106;10.996;2024-02-21T08:06:11;99197.80;;;9.50;66.25
77381;BME280;66439;50.106;10.996;2024-02-21T08:08:14;99191.38;;;9.55;66.41
77381;BME280;66439;50.106;10.996;2024-02-21T08:10:21;99184.50;;;9.57;66.20
77381;BME280;66439;50.106;10.996;2024-02-21T08:12:23;99178.70;;;9.59;66.22
77381;BME280;66439;50.106;10.996;2024-02-21T08:14:26;99173.72;;;9.64;66.55
77381;BME280;66439;50.106;10.996;2024-02-21T08:16:29;99174.55;;;9.67;66.17
77381;BME280;66439;50.106;10.996;2024-02-21T08:18:32;99182.39;;;9.70;66.18
77381;BME280;66439;50.106;10.996;2024-02-21T08:20:36;99181.26;;;9.74;66.24
77381;BME280;66439;50.106;10.996;2024-02-21T08:22:39;99185.20;;;9.77;66.05
77381;BME280;66439;50.106;10.996;2024-02-21T08:24:42;99190.33;;;9.78;65.75
77381;BME280;66439;50.106;10.996;2024-02-21T08:26:44;99194.97;;;9.77;65.82
77381;BME280;66439;50.106;10.996;2024-02-21T08:28:47;99199.84;;;9.78;65.80
77381;BME280;66439;50.106;10.996;2024-02-21T08:30:50;99199.55;;;9.80;66.10
77381;BME280;66439;50.106;10.996;2024-02-21T08:32:52;99202.27;;;9.83;66.03
77381;BME280;66439;50.106;10.996;2024-02-21T08:34:56;99200.45;;;9.82;65.55
77381;BME280;66439;50.106;10.996;2024-02-21T08:36:59;99196.83;;;9.76;65.35
77381;BME280;66439;50.106;10.996;2024-02-21T08:39:03;99194.69;;;9.72;65.46
77381;BME280;66439;50.106;10.996;2024-02-21T08:41:07;99189.45;;;9.70;65.52
77381;BME280;66439;50.106;10.996;2024-02-21T08:43:10;99191.67;;;9.68;65.51
77381;BME280;66439;50.106;10.996;2024-02-21T08:45:12;99188.95;;;9.65;65.51
77381;BME280;66439;50.106;10.996;2024-02-21T08:47:15;99185.79;;;9.63;65.41
77381;BME280;66439;50.106;10.996;2024-02-21T08:49:17;99180.82;;;9.63;65.49
77381;BME280;66439;50.106;10.996;2024-02-21T08:51:20;99178.82;;;9.66;65.67
77381;BME280;66439;50.106;10.996;2024-02-21T08:53:23;99179.76;;;9.68;65.63
77381;BME280;66439;50.106;10.996;2024-02-21T08:55:26;99176.45;;;9.71;65.69
77381;BME280;66439;50.106;10.996;2024-02-21T08:57:29;99172.47;;;9.75;65.89
77381;BME280;66439;50.106;10.996;2024-02-21T08:59:32;99171.60;;;9.82;65.91
77381;BME280;66439;50.106;10.996;2024-02-21T09:01:35;99169.11;;;9.85;65.72
77381;BME280;66439;50.106;10.996;2024-02-21T09:03:39;99165.85;;;9.87;65.66
77381;BME280;66439;50.106;10.996;2024-02-21T09:05:44;99171.34;;;9.89;65.72
77381;BME280;66439;50.106;10.996;2024-02-21T09:07:47;99168.04;;;9.91;65.63
77381;BME280;66439;50.106;10.996;2024-02-21T09:09:50;99166.16;;;9.96;65.57
77381;BME280;66439;50.106;10.996;2024-02-21T09:11:53;99164.88;;;9.98;65.47
77381;BME280;66439;50.106;10.996;2024-02-21T09:13:56;99159.45;;;10.01;65.52
77381;BME280;66439;50.106;10.996;2024-02-21T09:15:59;99156.64;;;10.04;65.57
77381;BME280;66439;50.106;10.996;2024-02-21T09:18:02;99156.47;;;10.08;65.33
77381;BME280;66439;50.106;10.996;2024-02-21T09:20:06;99155.11;;;10.09;65.32
77381;BME280;66439;50.106;10.996;2024-02-21T09:22:10;99149.40;;;10.11;65.36
77381;BME280;66439;50.106;10.996;2024-02-21T09:24:12;99148.02;;;10.20;65.39
77381;BME280;66439;50.106;10.996;2024-02-21T09:26:15;99145.96;;;10.29;65.34
77381;BME280;66439;50.106;10.996;2024-02-21T09:28:19;99143.18;;;10.34;65.16
77381;BME280;66439;50.106;10.996;2024-02-21T09:30:22;99136.23;;;10.39;64.98
77381;BME280;66439;50.106;10.996;2024-02-21T09:32:25;99134.52;;;10.43;64.90
77381;BME280;66439;50.106;10.996;2024-02-21T09:34:28;99134.98;;;10.46;64.78
77381;BME280;66439;50.106;10.996;2024-02-21T09:36:31;99135.18;;;10.47;64.73
77381;BME280;66439;50.106;10.996;2024-02-21T09:38:34;99134.86;;;10.48;64.36
77381;BME280;66439;50.106;10.996;2024-02-21T09:40:38;99136.13;;;10.50;64.34
77381;BME280;66439;50.106;10.996;2024-02-21T09:42:41;99135.89;;;10.52;64.41
77381;BME280;66439;50.106;10.996;2024-02-21T09:44:45;99136.92;;;10.54;64.29
77381;BME280;66439;50.106;10.996;2024-02-21T09:47:06;99137.75;;;10.56;64.32
77381;BME280;66439;50.106;10.996;2024-02-21T09:51:21;99132.21;;;10.48;63.59
77381;BME280;66439;50.106;10.996;2024-02-21T09:53:24;99127.59;;;10.48;63.73
77381;BME280;66439;50.106;10.996;2024-02-21T09:55:29;99128.66;;;10.49;63.40
77381;BME280;66439;50.106;10.996;2024-02-21T09:57:35;99126.42;;;10.45;63.00
77381;BME280;66439;50.106;10.996;2024-02-21T09:59:37;99116.59;;;10.44;63.21
77381;BME280;66439;50.106;10.996;2024-02-21T10:01:40;99108.72;;;10.43;63.11
77381;BME280;66439;50.106;10.996;2024-02-21T10:03:43;99105.73;;;10.41;63.06
77381;BME280;66439;50.106;10.996;2024-02-21T10:05:48;99102.52;;;10.43;63.13
77381;BME280;66439;50.106;10.996;2024-02-21T10:07:52;99099.14;;;10.45;63.08
77381;BME280;66439;50.106;10.996;2024-02-21T10:10:03;99090.90;;;10.47;62.77
77381;BME280;66439;50.106;10.996;2024-02-21T10:12:10;99091.23;;;10.50;63.05
77381;BME280;66439;50.106;10.996;2024-02-21T10:14:15;99093.98;;;10.54;63.03
77381;BME280;66439;50.106;10.996;2024-02-21T10:16:18;99092.73;;;10.55;62.56
77381;BME280;66439;50.106;10.996;2024-02-21T10:18:21;99093.61;;;10.53;62.30
77381;BME280;66439;50.106;10.996;2024-02-21T10:20:24;99095.80;;;10.51;62.04
77381;BME280;66439;50.106;10.996;2024-02-21T10:22:27;99101.42;;;10.50;62.11
77381;BME280;66439;50.106;10.996;2024-02-21T10:24:36;99097.89;;;10.49;62.00
77381;BME280;66439;50.106;10.996;2024-02-21T10:26:46;99094.48;;;10.48;61.93
77381;BME280;66439;50.106;10.996;2024-02-21T10:28:50;99094.27;;;10.48;61.84
77381;BME280;66439;50.106;10.996;2024-02-21T10:30:55;99087.99;;;10.49;61.87
77381;BME280;66439;50.106;10.996;2024-02-21T10:32:58;99083.34;;;10.48;61.70
77381;BME280;66439;50.106;10.996;2024-02-21T10:35:04;99081.71;;;10.48;61.62
77381;BME280;66439;50.106;10.996;2024-02-21T10:37:11;99076.14;;;10.49;61.82
77381;BME280;66439;50.106;10.996;2024-02-21T10:39:14;99073.43;;;10.51;61.89
77381;BME280;66439;50.106;10.996;2024-02-21T10:41:19;99068.43;;;10.50;62.01
77381;BME280;66439;50.106;10.996;2024-02-21T10:43:22;99066.80;;;10.50;61.78
77381;BME280;66439;50.106;10.996;2024-02-21T10:45:34;99067.32;;;10.52;61.66
77381;BME280;66439;50.106;10.996;2024-02-21T10:47:37;99061.84;;;10.52;61.71
77381;BME280;66439;50.106;10.996;2024-02-21T10:49:44;99061.64;;;10.54;61.46
77381;BME280;66439;50.106;10.996;2024-02-21T10:51:54;99060.20;;;10.54;61.34
77381;BME280;66439;50.106;10.996;2024-02-21T10:54:19;99056.42;;;10.56;61.28